createdAt,value
2023-01-23T00:01:57.014Z,97534.53
2023-01-23T00:04:26.258Z,97532.56
2023-01-23T00:06:55.171Z,97541.41
2023-01-23T00:09:24.531Z,97533.88
2023-01-23T00:11:52.921Z,97539.03
2023-01-23T00:14:22.780Z,97540.19
2023-01-23T00:16:51.212Z,97534.16
2023-01-23T00:19:21.857Z,97533.06
2023-01-23T00:21:50.309Z,97533.00
2023-01-23T00:24:19.631Z,97525.69
2023-01-23T00:26:48.023Z,97525.16
2023-01-23T00:29:16.518Z,97531.41
2023-01-23T00:31:46.557Z,97526.63
2023-01-23T00:34:21.463Z,97535.97
2023-01-23T00:36:49.949Z,97507.00
2023-01-23T00:39:21.116Z,97515.97
2023-01-23T00:41:50.552Z,97538.56
2023-01-23T00:44:20.389Z,97530.03
2023-01-23T06:53:43.743Z,97631.16
2023-01-23T06:59:46.296Z,97542.75
2023-01-23T07:33:21.630Z,97586.31
2023-01-23T08:46:05.257Z,97652.63
2023-01-23T08:48:35.447Z,97613.16
2023-01-23T08:51:06.774Z,97678.91
2023-01-23T08:53:36.263Z,97674.56
2023-01-23T09:15:33.206Z,97656.06
2023-01-23T11:06:26.375Z,97498.59
2023-01-23T11:08:58.899Z,97461.47
2023-01-23T11:11:30.071Z,97463.47
2023-01-23T11:39:32.924Z,97427.13
2023-01-23T11:42:28.498Z,97428.31
2023-01-23T11:48:36.508Z,97449.25
2023-01-23T11:54:06.017Z,97494.16
2023-01-23T14:31:34.869Z,97515.28
2023-01-23T14:34:10.407Z,97383.16
2023-01-23T14:36:47.673Z,97424.16
2023-01-23T14:43:50.339Z,97365.13
2023-01-23T15:32:01.797Z,97403.25
2023-01-23T16:01:03.352Z,97536.94
2023-01-23T16:18:16.489Z,97562.81
2023-01-23T16:23:55.436Z,97512.47
2023-01-23T16:26:26.966Z,97511.66
2023-01-23T16:29:12.083Z,97485.22
2023-01-23T16:31:46.483Z,97468.81
2023-01-23T16:34:15.390Z,97537.78
2023-01-23T16:36:46.094Z,97482.19
2023-01-23T16:39:19.124Z,97523.38
2023-01-23T16:41:49.606Z,97561.19
2023-01-23T16:44:22.886Z,97500.78
2023-01-23T16:46:52.988Z,97530.06
2023-01-23T16:49:24.081Z,97480.53
2023-01-23T16:51:59.623Z,97507.31
2023-01-23T16:54:29.631Z,97474.53
2023-01-23T16:56:59.710Z,97411.78
2023-01-23T16:59:56.817Z,97522.22
2023-01-23T17:02:33.466Z,97404.38
2023-01-23T17:09:14.315Z,97549.13
2023-01-23T17:11:47.741Z,97493.38
2023-01-23T17:28:00.678Z,97496.56
2023-01-23T17:30:35.401Z,97500.91
2023-01-23T18:13:15.273Z,97511.91
2023-01-23T18:30:20.442Z,97465.91
2023-01-23T18:37:03.696Z,97629.66
2023-01-23T19:32:46.249Z,97543.03
2023-01-23T19:39:07.223Z,97579.34
2023-01-23T20:18:53.381Z,97698.25
2023-01-23T21:11:28.616Z,97655.03
2023-01-23T21:13:57.332Z,97674.00
2023-01-23T21:16:26.666Z,97632.59
2023-01-23T21:18:55.463Z,97691.63
2023-01-23T21:21:26.783Z,97599.06
2023-01-23T21:44:34.797Z,97549.34
2023-01-23T21:47:04.615Z,97680.56
2023-01-23T21:49:34.245Z,97592.91
2023-01-23T21:52:03.115Z,97703.72
2023-01-23T22:11:21.706Z,97633.53
2023-01-23T22:13:52.045Z,97735.34
2023-01-23T22:16:25.572Z,97644.31
2023-01-23T22:32:51.297Z,97709.28
2023-01-23T22:35:19.767Z,97747.31
2023-01-23T22:37:48.695Z,97724.28
2023-01-23T22:40:17.657Z,97745.47
2023-01-23T22:42:45.898Z,97750.22
2023-01-23T22:45:14.333Z,97744.84
2023-01-23T22:47:43.454Z,97743.31
2023-01-23T22:50:13.760Z,97743.38
2023-01-23T22:52:42.265Z,97735.25
2023-01-23T22:55:19.702Z,97743.78
2023-01-23T22:58:00.121Z,97731.41
2023-01-23T23:00:31.206Z,97752.03
2023-01-23T23:03:09.152Z,97750.69
2023-01-23T23:05:40.838Z,97746.84
2023-01-23T23:08:09.697Z,97738.66
2023-01-23T23:10:38.369Z,97740.66
2023-01-23T23:13:06.614Z,97741.03
2023-01-23T23:15:36.545Z,97748.72
2023-01-23T23:18:05.128Z,97748.72
2023-01-23T23:20:34.272Z,97749.56
2023-01-23T23:23:03.871Z,97742.19
2023-01-23T23:25:32.951Z,97725.31
2023-01-23T23:28:01.560Z,97716.28
2023-01-23T23:30:30.223Z,97717.16
2023-01-23T23:32:58.926Z,97719.63
2023-01-23T23:35:27.183Z,97719.91
2023-01-23T23:37:56.414Z,97741.69
2023-01-23T23:40:26.024Z,97750.06
2023-01-23T23:42:56.373Z,97742.91
2023-01-23T23:45:31.355Z,97756.66
2023-01-23T23:48:00.421Z,97764.53
2023-01-23T23:50:29.119Z,97757.03
2023-01-23T23:52:57.468Z,97754.88
2023-01-23T23:55:27.755Z,97764.41
